CheckWX is a tool to help pilots better visualize weather data.  It is not intended as a substitute for an official pre-flight weather briefing.

12:22:48 UTC

KLCI METAR
Laconia Municipal Airport
Laconia, New Hampshire, USA
Current

27 mins ago

KLCI 221156Z AUTO 00000KT 10SM FEW039 00/M07 A3020 RMK AO2 SLP246 70002 T00001072 10017 21006 51037 PWINO FZRANO $
Observed
Feb-22 @ 11:56 UTC
Visibility
10 SM
Flight Rules
VFR
Cloud Levels
  • Few at 3,900' AGL
Temperature
C / 32°F
Dewpoint
-7°C / 19°F
Humidity
60%
Altimeter
30.2" Hg
Pressure
1024.6 hPa
Previous

1 hour ago

KLCI 221056Z AUTO 30008G15KT 10SM BKN041 00/M07 A3017 RMK AO2 SLP234 T00001072 PWINO FZRANO $
Observed
Feb-22 @ 10:56 UTC
Wind
  • 300° at 8 KTS
  • Gusting to KTS
Visibility
10 SM
Flight Rules
VFR
Cloud Levels
  • Broken at 4,100' AGL
Temperature
C / 32°F
Dewpoint
-7°C / 19°F
Humidity
60%
Altimeter
30.17" Hg
Pressure
1023.4 hPa
Previous

2 hours ago

KLCI 220956Z AUTO 31004KT 10SM BKN043 00/M06 A3013 RMK AO2 SLP221 T00001061 PWINO FZRANO $
Observed
Feb-22 @ 09:56 UTC
Wind
  • 310° at 4 KTS
Visibility
10 SM
Flight Rules
VFR
Cloud Levels
  • Broken at 4,300' AGL
Temperature
C / 32°F
Dewpoint
-6°C / 21°F
Humidity
64%
Altimeter
30.13" Hg
Pressure
1022.1 hPa